Time;durP1;ratioP1;P1;durP2;ratioP2;P2;SDS_P1;SDS_P2;PMS_P1;PMS_P2;Temp;Humidity;BMP_temperature;BMP_pressure;BME280_temperature;BME280_humidity;BME280_pressure;Samples;Min_cycle;Max_cycle;Signal;HPM_P1;HPM_P2
2021/01/08 00:02:18;;;;;;;16.45;9.23;;;1.90;85.20;;;;;;5030858;28;20025;-66
2021/01/08 00:04:43;;;;;;;40.28;17.52;;;1.90;85.10;;;;;;5029879;28;20663;-66
2021/01/08 00:07:09;;;;;;;18.13;8.95;;;1.80;85.20;;;;;;5031120;28;20021;-65
2021/01/08 00:09:35;;;;;;;31.38;13.38;;;1.80;85.20;;;;;;5029572;28;20550;-66
2021/01/08 00:12:01;;;;;;;37.67;15.88;;;1.80;85.20;;;;;;5030920;28;20029;-66
2021/01/08 00:14:26;;;;;;;31.23;13.35;;;1.80;85.30;;;;;;5029690;28;20040;-67
2021/01/08 00:16:52;;;;;;;23.52;10.63;;;1.80;85.20;;;;;;5031323;28;20033;-66
2021/01/08 00:19:17;;;;;;;19.52;9.40;;;1.70;85.10;;;;;;5029699;28;20101;-66
2021/01/08 00:21:43;;;;;;;25.88;12.82;;;1.80;84.80;;;;;;5028350;28;21558;-66
2021/01/08 00:24:12;;;;;;;18.15;9.00;;;1.80;85.00;;;;;;5025576;28;20069;-66
2021/01/08 00:26:40;;;;;;;30.63;12.75;;;1.70;85.00;;;;;;5031167;28;20435;-66
2021/01/08 00:29:07;;;;;;;30.33;12.85;;;1.80;84.80;;;;;;5029417;28;20035;-66
2021/01/08 00:31:40;;;;;;;12.82;7.47;;;1.70;84.80;;;;;;5030536;28;20022;-66
2021/01/08 00:34:14;;;;;;;41.05;16.63;;;1.80;85.10;;;;;;5019149;28;20437;-65
2021/01/08 00:36:48;;;;;;;17.08;8.05;;;1.80;85.10;;;;;;5030707;28;20045;-66
2021/01/08 00:39:14;;;;;;;33.03;14.07;;;1.80;84.90;;;;;;5030487;28;20067;-65
2021/01/08 00:41:40;;;;;;;62.35;23.95;;;1.90;84.80;;;;;;5028940;28;20493;-66
2021/01/08 00:44:06;;;;;;;28.70;13.65;;;1.80;84.60;;;;;;5029297;28;20037;-66
2021/01/08 00:46:36;;;;;;;29.77;13.30;;;1.80;84.60;;;;;;5030753;28;20089;-66
2021/01/08 00:49:03;;;;;;;11.68;7.68;;;1.80;84.50;;;;;;5030046;28;20026;-66
2021/01/08 00:51:29;;;;;;;36.00;14.95;;;1.80;84.50;;;;;;5029508;28;20120;-66
2021/01/08 00:53:55;;;;;;;22.05;10.50;;;1.80;84.60;;;;;;5016131;28;20490;-65
2021/01/08 00:56:21;;;;;;;13.45;7.90;;;1.80;84.50;;;;;;5030827;28;20377;-66
2021/01/08 00:58:47;;;;;;;17.02;9.57;;;1.80;84.70;;;;;;5029197;28;20029;-65
2021/01/08 01:01:14;;;;;;;15.27;9.63;;;1.80;84.70;;;;;;5029893;28;20033;-66
2021/01/08 01:03:40;;;;;;;12.40;7.35;;;1.90;84.50;;;;;;5029661;28;20038;-66
2021/01/08 01:06:05;;;;;;;13.88;7.90;;;1.80;84.50;;;;;;5028285;28;20024;-66
2021/01/08 01:08:31;;;;;;;14.07;7.28;;;1.90;84.30;;;;;;5030413;28;20049;-66
2021/01/08 01:10:56;;;;;;;11.40;6.45;;;1.80;84.30;;;;;;5029944;28;20556;-66
2021/01/08 01:13:22;;;;;;;11.05;7.10;;;1.80;84.30;;;;;;5028395;28;20048;-66
2021/01/08 01:15:48;;;;;;;11.30;7.38;;;1.80;84.10;;;;;;5029727;28;20035;-66
2021/01/08 01:18:14;;;;;;;8.65;5.75;;;1.80;84.20;;;;;;5029619;28;20069;-65
2021/01/08 01:20:39;;;;;;;10.85;6.35;;;1.80;84.10;;;;;;5029595;28;20032;-66
2021/01/08 01:23:05;;;;;;;12.52;6.70;;;1.80;84.20;;;;;;5018844;28;20083;-66
2021/01/08 01:25:30;;;;;;;12.38;6.93;;;1.70;84.20;;;;;;5029217;28;20048;-66
2021/01/08 01:27:56;;;;;;;10.63;6.70;;;1.80;84.40;;;;;;5029822;28;20033;-66
2021/01/08 01:30:22;;;;;;;8.73;5.60;;;1.70;84.10;;;;;;5030166;28;20105;-66
2021/01/08 01:32:47;;;;;;;10.80;6.80;;;1.80;84.20;;;;;;5029882;28;20036;-66
2021/01/08 01:35:13;;;;;;;11.38;6.53;;;1.80;84.20;;;;;;5029324;28;20025;-66
2021/01/08 01:37:38;;;;;;;12.48;7.00;;;1.70;83.90;;;;;;5029862;28;20065;-66
2021/01/08 01:40:05;;;;;;;13.93;7.30;;;1.70;84.10;;;;;;5029977;28;20482;-66
2021/01/08 01:42:30;;;;;;;10.82;6.18;;;1.70;84.30;;;;;;5029391;28;20038;-66
2021/01/08 01:44:56;;;;;;;12.45;7.57;;;1.70;84.20;;;;;;5029627;28;20053;-65
2021/01/08 01:47:22;;;;;;;10.48;6.50;;;1.70;84.20;;;;;;5029943;28;20055;-66
2021/01/08 01:49:48;;;;;;;13.57;7.43;;;1.70;84.20;;;;;;5029854;28;20025;-66
2021/01/08 01:52:14;;;;;;;12.27;7.20;;;1.80;84.40;;;;;;5021000;28;20061;-66
2021/01/08 01:54:39;;;;;;;12.75;7.13;;;1.80;84.20;;;;;;5025010;28;20026;-66
2021/01/08 01:57:05;;;;;;;10.60;6.63;;;1.80;84.10;;;;;;5022956;28;20035;-66
2021/01/08 01:59:31;;;;;;;10.98;6.10;;;1.80;84.00;;;;;;5022134;28;20116;-66
2021/01/08 02:02:00;;;;;;;9.18;5.93;;;1.80;84.10;;;;;;5015649;28;20105;-66
2021/01/08 02:04:27;;;;;;;8.52;5.50;;;1.80;84.00;;;;;;5028156;28;20037;-67
2021/01/08 02:06:53;;;;;;;7.82;5.38;;;1.80;83.60;;;;;;5030052;28;20045;-66
2021/01/08 02:09:20;;;;;;;7.78;5.43;;;1.70;83.60;;;;;;5029768;28;20099;-66
2021/01/08 02:11:49;;;;;;;9.48;6.07;;;1.80;83.80;;;;;;5031450;28;20071;-66
2021/01/08 02:14:27;;;;;;;9.90;5.90;;;1.80;83.70;;;;;;5032538;28;20025;-66
2021/01/08 02:16:53;;;;;;;10.63;5.38;;;1.70;83.40;;;;;;5032784;28;20064;-66
2021/01/08 02:19:28;;;;;;;8.20;5.20;;;1.70;83.00;;;;;;5033299;28;20071;-66
2021/01/08 02:22:16;;;;;;;10.52;5.00;;;1.70;83.10;;;;;;5029572;28;20033;-65
2021/01/08 02:25:05;;;;;;;7.97;5.43;;;1.60;83.10;;;;;;5020918;28;20041;-65
2021/01/08 02:27:32;;;;;;;8.68;5.55;;;1.60;83.00;;;;;;5024198;28;20028;-66
2021/01/08 02:29:58;;;;;;;8.20;5.13;;;1.60;82.80;;;;;;5033189;28;20056;-66
2021/01/08 02:32:25;;;;;;;7.32;4.72;;;1.60;82.50;;;;;;5032221;28;20025;-66
2021/01/08 02:34:51;;;;;;;8.13;4.55;;;1.60;82.40;;;;;;5031890;28;20030;-66
2021/01/08 02:37:17;;;;;;;7.47;4.57;;;1.50;82.40;;;;;;5032241;28;20528;-66
2021/01/08 02:39:43;;;;;;;10.43;5.30;;;1.50;82.00;;;;;;5031776;28;20432;-66
2021/01/08 02:42:11;;;;;;;10.15;5.13;;;1.50;81.80;;;;;;5032417;28;20026;-66
2021/01/08 02:44:37;;;;;;;5.55;3.97;;;1.50;82.20;;;;;;5032339;28;20037;-66
2021/01/08 02:47:02;;;;;;;11.25;5.75;;;1.50;82.30;;;;;;5032403;28;20025;-66
2021/01/08 02:49:28;;;;;;;7.03;4.72;;;1.50;82.00;;;;;;5032514;28;20087;-66
2021/01/08 02:51:53;;;;;;;9.68;4.47;;;1.50;82.20;;;;;;5030317;28;20031;-66
2021/01/08 02:54:19;;;;;;;9.00;4.88;;;1.50;82.50;;;;;;5018653;28;20061;-66
2021/01/08 02:56:52;;;;;;;9.98;4.93;;;1.50;82.60;;;;;;5032710;28;20045;-66
2021/01/08 02:59:18;;;;;;;8.02;5.13;;;1.50;82.60;;;;;;5031133;28;20052;-66
2021/01/08 03:01:45;;;;;;;13.18;6.18;;;1.50;82.60;;;;;;5032264;28;20040;-66
2021/01/08 03:04:11;;;;;;;8.65;5.43;;;1.60;82.60;;;;;;5031640;28;20547;-66
2021/01/08 03:06:40;;;;;;;10.40;5.55;;;1.50;82.40;;;;;;5032091;28;20029;-66
2021/01/08 03:09:06;;;;;;;8.52;5.40;;;1.60;82.60;;;;;;5032552;28;20041;-66
2021/01/08 03:11:32;;;;;;;11.40;5.82;;;1.60;82.70;;;;;;5031874;28;20068;-66
2021/01/08 03:13:58;;;;;;;12.00;5.70;;;1.60;82.70;;;;;;5031608;28;20433;-66
2021/01/08 03:16:23;;;;;;;9.77;5.60;;;1.60;82.70;;;;;;5032577;28;20022;-66
2021/01/08 03:18:49;;;;;;;12.27;5.85;;;1.60;82.60;;;;;;5031401;28;20500;-66
2021/01/08 03:21:14;;;;;;;10.68;6.35;;;1.60;82.40;;;;;;5032153;28;20096;-66
2021/01/08 03:23:40;;;;;;;11.77;6.35;;;1.60;82.30;;;;;;5017449;28;20037;-66
2021/01/08 03:26:06;;;;;;;10.02;5.95;;;1.60;82.40;;;;;;5031511;28;20033;-65
2021/01/08 03:28:31;;;;;;;10.52;6.13;;;1.50;82.40;;;;;;5031882;28;20022;-65
2021/01/08 03:30:57;;;;;;;10.23;5.80;;;1.50;82.70;;;;;;5032019;28;20033;-66
2021/01/08 03:33:22;;;;;;;10.70;6.35;;;1.50;83.00;;;;;;5030903;28;20548;-66
2021/01/08 03:35:48;;;;;;;13.77;6.88;;;1.60;83.00;;;;;;5031905;28;20113;-66
2021/01/08 03:38:13;;;;;;;12.75;7.03;;;1.50;82.90;;;;;;5030638;28;20104;-66
2021/01/08 03:40:42;;;;;;;11.10;6.43;;;1.60;82.80;;;;;;5031606;28;20026;-66
2021/01/08 03:43:09;;;;;;;11.55;6.35;;;1.60;82.90;;;;;;5031570;28;20025;-66
2021/01/08 03:45:34;;;;;;;8.52;5.68;;;1.60;82.90;;;;;;5031359;28;20398;-66
2021/01/08 03:48:00;;;;;;;12.48;7.10;;;1.60;82.90;;;;;;5031818;28;20032;-66
2021/01/08 03:50:26;;;;;;;11.98;6.68;;;1.50;82.60;;;;;;5032022;28;20025;-66
2021/01/08 03:52:51;;;;;;;13.02;6.95;;;1.50;82.90;;;;;;5029603;28;20115;-66
2021/01/08 03:55:17;;;;;;;11.90;6.20;;;1.50;82.90;;;;;;5030637;28;20037;-66
2021/01/08 03:57:43;;;;;;;13.57;7.30;;;1.40;82.90;;;;;;5033133;28;20028;-66
2021/01/08 04:00:09;;;;;;;13.93;6.65;;;1.40;83.20;;;;;;5031535;28;20125;-66
2021/01/08 04:02:34;;;;;;;11.48;6.95;;;1.40;83.30;;;;;;5021852;28;20112;-66
2021/01/08 04:05:00;;;;;;;14.52;7.72;;;1.40;83.60;;;;;;5031196;28;20057;-66
2021/01/08 04:07:25;;;;;;;16.20;8.20;;;1.40;83.70;;;;;;5031454;28;20086;-66
2021/01/08 04:09:51;;;;;;;15.98;7.80;;;1.40;83.80;;;;;;5031722;28;20021;-66
2021/01/08 04:12:16;;;;;;;16.77;7.78;;;1.40;83.70;;;;;;5031114;28;20110;-66
2021/01/08 04:14:42;;;;;;;17.88;8.50;;;1.40;83.80;;;;;;5030822;28;20415;-66
2021/01/08 04:17:08;;;;;;;15.55;7.63;;;1.30;83.90;;;;;;5030935;28;20022;-66
2021/01/08 04:19:33;;;;;;;14.85;8.45;;;1.30;83.90;;;;;;5030918;28;20040;-66
2021/01/08 04:21:59;;;;;;;16.15;9.13;;;1.30;84.10;;;;;;5028353;28;20022;-66
2021/01/08 04:24:24;;;;;;;16.13;9.20;;;1.30;84.20;;;;;;5022214;28;20034;-66
2021/01/08 04:26:50;;;;;;;13.82;7.55;;;1.30;84.20;;;;;;5022504;28;20022;-66
2021/01/08 04:29:15;;;;;;;15.23;7.75;;;1.30;84.20;;;;;;5030542;28;20493;-66
2021/01/08 04:31:41;;;;;;;14.48;7.78;;;1.40;84.30;;;;;;5030462;28;20111;-66
2021/01/08 04:34:08;;;;;;;12.70;7.57;;;1.30;84.10;;;;;;5029725;28;20026;-66
2021/01/08 04:36:34;;;;;;;14.00;7.47;;;1.30;84.10;;;;;;5029671;28;20505;-66
2021/01/08 04:38:59;;;;;;;13.77;7.80;;;1.40;84.10;;;;;;5025015;28;20489;-66
2021/01/08 04:41:26;;;;;;;16.58;9.00;;;1.40;84.20;;;;;;5028753;28;20040;-66
2021/01/08 04:43:52;;;;;;;14.98;7.95;;;1.40;84.20;;;;;;5029749;28;20026;-66
2021/01/08 04:46:21;;;;;;;15.40;7.82;;;1.40;84.30;;;;;;5030739;28;20377;-66
2021/01/08 04:48:48;;;;;;;15.02;8.55;;;1.40;84.20;;;;;;5030461;28;20228;-66
2021/01/08 04:51:15;;;;;;;14.73;8.45;;;1.40;84.40;;;;;;5026137;28;20034;-66
2021/01/08 04:53:42;;;;;;;18.02;8.95;;;1.40;84.30;;;;;;5025516;28;20068;-65
2021/01/08 04:56:10;;;;;;;13.73;8.30;;;1.40;84.30;;;;;;5028207;28;20068;-66
2021/01/08 04:58:36;;;;;;;15.30;8.38;;;1.40;84.40;;;;;;5030542;28;20703;-66
2021/01/08 05:01:03;;;;;;;17.55;8.68;;;1.50;84.40;;;;;;5029836;28;20061;-66
2021/01/08 05:03:29;;;;;;;16.90;8.50;;;1.50;84.40;;;;;;5030285;28;20033;-66
2021/01/08 05:05:56;;;;;;;17.73;9.80;;;1.50;84.40;;;;;;5029400;28;20030;-66
2021/01/08 05:08:22;;;;;;;15.35;8.45;;;1.40;84.40;;;;;;5030144;28;20029;-66
2021/01/08 05:10:48;;;;;;;16.05;8.45;;;1.40;84.50;;;;;;5029437;28;20034;-66
2021/01/08 05:13:14;;;;;;;16.30;8.65;;;1.40;84.50;;;;;;5030356;28;20063;-66
2021/01/08 05:15:43;;;;;;;20.63;10.05;;;1.40;84.60;;;;;;5029586;28;20393;-66
2021/01/08 05:18:09;;;;;;;18.38;9.32;;;1.40;84.60;;;;;;5030273;28;20048;-66
2021/01/08 05:20:35;;;;;;;15.95;9.23;;;1.40;84.60;;;;;;5028813;28;20519;-66
2021/01/08 05:23:03;;;;;;;17.52;8.95;;;1.40;84.80;;;;;;5029508;28;20069;-66
2021/01/08 05:25:29;;;;;;;19.45;10.07;;;1.40;84.90;;;;;;5014036;28;20038;-66
2021/01/08 05:27:55;;;;;;;17.88;8.95;;;1.40;85.00;;;;;;5027640;28;20033;-66
2021/01/08 05:30:25;;;;;;;19.52;10.25;;;1.40;85.00;;;;;;5027637;28;20021;-66
2021/01/08 05:32:59;;;;;;;13.43;8.05;;;1.40;85.10;;;;;;5030195;28;20057;-66
2021/01/08 05:35:26;;;;;;;14.95;8.77;;;1.40;85.00;;;;;;5029620;28;20021;-66
2021/01/08 05:37:56;;;;;;;15.63;9.32;;;1.50;85.10;;;;;;5029797;28;20029;-66
2021/01/08 05:40:26;;;;;;;18.80;9.93;;;1.50;84.90;;;;;;5029893;28;20091;-66
2021/01/08 05:42:55;;;;;;;15.00;8.77;;;1.50;84.90;;;;;;5029912;28;20493;-66
2021/01/08 05:45:21;;;;;;;16.33;9.88;;;1.50;85.00;;;;;;5029669;28;20389;-66
2021/01/08 05:47:49;;;;;;;15.98;9.48;;;1.50;85.10;;;;;;5032932;28;20029;-66
2021/01/08 05:50:19;;;;;;;17.08;8.63;;;1.50;85.10;;;;;;5033341;28;20021;-66
2021/01/08 05:53:12;;;;;;;15.52;8.55;;;1.40;85.00;;;;;;5066836;22;20041;-90
2021/01/08 05:56:12;;;;;;;16.45;8.43;;;1.40;85.20;;;;;;5040051;28;20030;-91
2021/01/08 05:58:38;;;;;;;15.95;8.82;;;1.50;85.20;;;;;;5036306;28;20033;-91
2021/01/08 06:01:04;;;;;;;16.90;8.57;;;1.50;85.30;;;;;;5036220;28;20096;-91
2021/01/08 06:03:31;;;;;;;16.52;9.05;;;1.50;85.20;;;;;;5034678;28;20088;-90
2021/01/08 06:06:05;;;;;;;11.98;7.65;;;1.60;85.10;;;;;;5034653;28;20022;-90
2021/01/08 06:08:50;;;;;;;13.50;8.23;;;1.60;85.20;;;;;;5038832;28;20021;-91
2021/01/08 06:11:20;;;;;;;13.07;8.10;;;1.60;84.90;;;;;;5051252;28;20056;-91
2021/01/08 06:13:53;;;;;;;14.50;8.75;;;1.60;84.90;;;;;;5040606;28;20494;-90
2021/01/08 06:16:21;;;;;;;14.38;7.88;;;1.60;85.00;;;;;;5047226;28;20033;-90
2021/01/08 06:18:49;;;;;;;16.77;8.45;;;1.50;85.00;;;;;;5043248;28;20033;-89
2021/01/08 06:21:17;;;;;;;16.38;10.00;;;1.50;85.10;;;;;;5033300;28;20022;-89
2021/01/08 06:23:47;;;;;;;18.20;9.57;;;1.50;85.30;;;;;;5045056;28;20087;-90
2021/01/08 06:26:17;;;;;;;19.08;10.55;;;1.40;85.30;;;;;;5034257;28;20056;-88
2021/01/08 06:28:50;;;;;;;17.55;9.65;;;1.40;85.50;;;;;;5045814;28;20029;-89
2021/01/08 06:31:22;;;;;;;17.83;10.20;;;1.40;85.60;;;;;;5035576;28;20080;-89
2021/01/08 06:33:59;;;;;;;19.75;9.80;;;1.40;85.70;;;;;;5040794;28;20025;-88
2021/01/08 06:36:26;;;;;;;19.50;9.93;;;1.30;85.70;;;;;;5034160;28;20034;-88
2021/01/08 06:38:59;;;;;;;19.17;11.80;;;1.30;85.90;;;;;;5035174;28;20091;-91
2021/01/08 06:41:26;;;;;;;20.20;10.95;;;1.30;86.10;;;;;;5033328;28;20035;-89
2021/01/08 06:44:03;;;;;;;20.88;10.30;;;1.30;86.00;;;;;;5034461;28;20057;-88
2021/01/08 06:46:37;;;;;;;26.23;13.07;;;1.30;86.20;;;;;;5034772;28;20030;-89
2021/01/08 06:49:13;;;;;;;23.48;11.40;;;1.20;86.30;;;;;;5036643;28;20017;-90
2021/01/08 06:51:46;;;;;;;21.90;11.80;;;1.20;86.40;;;;;;5036938;28;20033;-89
2021/01/08 06:54:13;;;;;;;23.35;11.95;;;1.20;86.60;;;;;;5052706;28;20402;-89
2021/01/08 06:56:44;;;;;;;24.08;13.27;;;1.20;86.70;;;;;;5036317;28;20026;-89
2021/01/08 06:59:16;;;;;;;22.73;11.77;;;1.20;87.00;;;;;;5030937;28;20115;-90
2021/01/08 07:01:44;;;;;;;23.52;11.70;;;1.10;87.00;;;;;;5043103;28;20386;-90
2021/01/08 07:04:11;;;;;;;26.50;12.02;;;1.10;87.10;;;;;;5053469;28;20129;-90
2021/01/08 07:06:37;;;;;;;23.13;12.07;;;1.10;87.30;;;;;;5053774;28;20112;-91
2021/01/08 07:09:07;;;;;;;24.88;11.63;;;1.10;87.40;;;;;;5053244;28;20074;-90
2021/01/08 07:11:34;;;;;;;25.05;11.68;;;1.10;87.50;;;;;;5053438;28;20064;-90
2021/01/08 07:14:10;;;;;;;28.67;10.88;;;1.10;87.60;;;;;;5053075;28;20042;-90
2021/01/08 07:16:47;;;;;;;28.85;13.20;;;1.10;87.80;;;;;;5053384;28;20021;-90
2021/01/08 07:19:15;;;;;;;27.65;12.73;;;1.10;88.00;;;;;;5053520;28;20395;-90
2021/01/08 07:21:47;;;;;;;28.70;11.63;;;1.00;87.90;;;;;;5053225;28;20025;-90
2021/01/08 07:24:14;;;;;;;28.13;12.60;;;1.00;88.10;;;;;;5053116;28;20017;-90
2021/01/08 07:26:40;;;;;;;30.27;12.90;;;1.10;88.30;;;;;;5052772;28;20060;-91
2021/01/08 07:29:08;;;;;;;26.80;11.10;;;1.00;88.20;;;;;;5052965;28;20048;-90
2021/01/08 07:31:36;;;;;;;25.83;11.82;;;1.00;88.30;;;;;;5052335;28;20035;-90
2021/01/08 07:34:05;;;;;;;29.33;12.05;;;1.00;88.30;;;;;;5052519;28;20025;-91
2021/01/08 07:36:32;;;;;;;32.63;13.32;;;1.00;88.40;;;;;;5052219;28;20036;-89
2021/01/08 07:38:58;;;;;;;31.90;11.85;;;1.00;88.50;;;;;;5035241;28;20030;-89
2021/01/08 07:41:37;;;;;;;30.70;11.98;;;1.00;88.50;;;;;;5032342;28;20033;-90
2021/01/08 07:44:24;;;;;;;30.88;12.38;;;1.00;88.60;;;;;;5032694;28;20033;-89
2021/01/08 07:46:49;;;;;;;30.63;11.90;;;1.10;88.70;;;;;;5032279;28;20497;-89
2021/01/08 07:49:26;;;;;;;26.92;11.50;;;1.10;88.70;;;;;;5032466;28;20053;-89
2021/01/08 07:51:52;;;;;;;37.42;13.60;;;1.10;88.80;;;;;;5032320;28;20017;-89
2021/01/08 07:54:52;;;;;;;34.72;12.40;;;1.10;88.80;;;;;;5032823;28;20132;-89
2021/01/08 07:57:18;;;;;;;31.63;11.32;;;1.10;88.80;;;;;;5032615;28;20059;-90
2021/01/08 07:59:43;;;;;;;28.50;11.20;;;1.10;88.80;;;;;;5032344;28;20033;-89
2021/01/08 08:02:09;;;;;;;35.13;11.48;;;1.10;88.90;;;;;;5034450;28;20388;-89
2021/01/08 08:04:37;;;;;;;33.30;12.20;;;1.10;89.00;;;;;;5031423;28;20048;-90
2021/01/08 08:07:03;;;;;;;29.77;12.77;;;1.10;89.00;;;;;;5043783;28;20391;-89
2021/01/08 08:09:28;;;;;;;26.52;10.32;;;1.10;89.10;;;;;;5031251;28;20395;-90
2021/01/08 08:11:55;;;;;;;27.55;10.63;;;1.20;89.10;;;;;;5031441;28;20025;-89
2021/01/08 08:14:24;;;;;;;25.23;11.07;;;1.20;89.10;;;;;;5030975;28;20025;-89
2021/01/08 08:16:50;;;;;;;27.00;10.38;;;1.20;89.10;;;;;;5031589;28;20033;-88
2021/01/08 08:19:16;;;;;;;33.88;12.35;;;1.20;89.00;;;;;;5028929;28;20093;-89
2021/01/08 08:21:46;;;;;;;26.13;11.25;;;1.20;89.10;;;;;;5046966;28;20147;-90
2021/01/08 08:24:16;;;;;;;29.95;11.65;;;1.20;89.10;;;;;;5038332;28;20021;-89
2021/01/08 08:26:43;;;;;;;35.75;12.90;;;1.30;89.10;;;;;;5032791;28;20500;-90
2021/01/08 08:29:11;;;;;;;28.40;10.65;;;1.20;89.20;;;;;;5034509;28;20013;-90
2021/01/08 08:31:56;;;;;;;33.45;13.25;;;1.20;89.20;;;;;;5036818;28;20021;-90
2021/01/08 08:34:29;;;;;;;26.10;10.32;;;1.20;89.30;;;;;;5039835;28;20029;-90
2021/01/08 08:37:08;;;;;;;29.30;11.20;;;1.30;89.40;;;;;;5038725;28;20529;-89
2021/01/08 08:39:34;;;;;;;30.27;11.10;;;1.30;89.40;;;;;;5041271;28;20059;-89
2021/01/08 08:42:00;;;;;;;31.77;14.15;;;1.30;89.30;;;;;;5031608;28;20033;-90
2021/01/08 08:44:25;;;;;;;30.00;13.38;;;1.30;89.30;;;;;;5030982;28;20026;-91
2021/01/08 08:46:56;;;;;;;34.97;13.25;;;1.30;89.40;;;;;;5031133;28;20399;-90
2021/01/08 08:49:28;;;;;;;30.33;12.88;;;1.30;89.40;;;;;;5030475;28;20025;-90
2021/01/08 08:51:55;;;;;;;33.53;13.38;;;1.30;89.50;;;;;;5030743;28;20021;-90
2021/01/08 08:54:24;;;;;;;28.85;12.30;;;1.30;89.50;;;;;;5030943;28;20029;-90
2021/01/08 08:57:02;;;;;;;27.08;12.20;;;1.30;89.60;;;;;;5031008;28;20025;-89
2021/01/08 08:59:47;;;;;;;29.63;12.60;;;1.30;89.70;;;;;;5030333;28;20060;-90
2021/01/08 09:02:15;;;;;;;29.48;12.95;;;1.40;89.60;;;;;;5030349;28;20071;-90
2021/01/08 09:04:58;;;;;;;26.92;11.98;;;1.40;89.60;;;;;;5036919;28;20033;-89
2021/01/08 09:07:37;;;;;;;;;;;1.40;89.60;;;;;;5038778;28;20075;-90
2021/01/08 09:10:11;;;;;;;28.38;12.75;;;1.40;89.50;;;;;;5046666;28;20004;-90
2021/01/08 09:12:44;;;;;;;24.50;10.68;;;1.40;89.50;;;;;;5030634;28;20083;-90
2021/01/08 09:15:30;;;;;;;;;;;1.40;89.60;;;;;;5032645;28;20029;-89
2021/01/08 09:18:11;;;;;;;21.48;10.73;;;1.40;89.50;;;;;;5033745;28;19947;-89
2021/01/08 09:20:49;;;;;;;22.20;10.95;;;1.40;89.60;;;;;;5031724;28;20030;-90
2021/01/08 09:23:15;;;;;;;22.90;11.50;;;1.40;89.60;;;;;;5033025;28;20045;-90
2021/01/08 09:25:41;;;;;;;25.02;12.82;;;1.40;89.70;;;;;;5022979;28;20025;-90
2021/01/08 09:28:15;;;;;;;23.77;11.00;;;1.40;89.70;;;;;;5035008;28;20024;-90
2021/01/08 09:30:49;;;;;;;21.40;10.57;;;1.50;89.80;;;;;;5034963;28;20021;-89
2021/01/08 09:33:15;;;;;;;22.10;11.00;;;1.50;89.80;;;;;;5034674;28;20033;-90
2021/01/08 09:35:45;;;;;;;22.77;10.65;;;1.50;89.70;;;;;;5044091;28;20108;-90
2021/01/08 09:38:14;;;;;;;24.27;10.27;;;1.50;89.70;;;;;;5034587;28;20131;-90
2021/01/08 09:40:40;;;;;;;26.85;9.80;;;1.50;89.70;;;;;;5034712;28;20033;-90
2021/01/08 09:43:16;;;;;;;20.23;11.35;;;1.60;89.80;;;;;;5034455;28;20030;-90
2021/01/08 09:45:42;;;;;;;17.50;9.73;;;1.60;89.90;;;;;;5034152;28;20028;-90
2021/01/08 09:48:23;;;;;;;15.88;8.85;;;1.60;89.70;;;;;;5034098;28;20033;-90
2021/01/08 09:51:03;;;;;;;15.63;9.65;;;1.60;89.70;;;;;;5034404;28;20029;-90
2021/01/08 09:53:29;;;;;;;17.65;9.25;;;1.60;89.80;;;;;;5034593;28;20087;-89
2021/01/08 09:56:10;;;;;;;15.70;8.70;;;1.60;89.80;;;;;;5033691;28;20434;-90
2021/01/08 09:58:36;;;;;;;19.55;10.45;;;1.60;89.80;;;;;;5034393;28;20432;-90
2021/01/08 10:01:02;;;;;;;15.27;8.60;;;1.60;89.90;;;;;;5034913;28;20026;-90
2021/01/08 10:03:27;;;;;;;14.88;8.25;;;1.60;89.70;;;;;;5034092;28;20053;-90
2021/01/08 10:06:02;;;;;;;13.25;7.82;;;1.60;89.70;;;;;;5045594;28;20063;-90
2021/01/08 10:08:27;;;;;;;12.45;7.53;;;1.60;89.70;;;;;;5053937;28;20021;-90
2021/01/08 10:10:53;;;;;;;17.98;8.73;;;1.60;89.80;;;;;;5041438;28;20387;-90
2021/01/08 10:13:21;;;;;;;14.95;8.57;;;1.60;89.80;;;;;;5030483;28;20049;-90
2021/01/08 10:15:52;;;;;;;14.38;8.15;;;1.60;89.90;;;;;;5016030;28;20026;-90
2021/01/08 10:18:25;;;;;;;11.35;7.60;;;1.60;89.90;;;;;;5033840;28;20464;-90
2021/01/08 10:20:55;;;;;;;12.40;8.00;;;1.70;90.00;;;;;;5033813;28;20084;-90
2021/01/08 10:23:25;;;;;;;13.23;7.57;;;1.70;89.70;;;;;;5033194;28;20029;-90
2021/01/08 10:25:52;;;;;;;17.25;8.73;;;1.70;89.70;;;;;;5033440;28;20111;-90
2021/01/08 10:28:24;;;;;;;16.67;8.60;;;1.70;89.70;;;;;;5033687;28;20026;-90
2021/01/08 10:30:52;;;;;;;17.95;9.63;;;1.70;89.70;;;;;;5033760;28;20021;-89
2021/01/08 10:33:20;;;;;;;14.38;7.97;;;1.70;89.60;;;;;;5033013;28;20026;-90
2021/01/08 10:35:47;;;;;;;15.05;7.43;;;1.70;89.60;;;;;;5041279;28;20462;-90
2021/01/08 10:38:13;;;;;;;13.98;7.45;;;1.70;89.70;;;;;;5033173;28;20032;-89
2021/01/08 10:40:38;;;;;;;11.85;7.95;;;1.70;90.10;;;;;;5033089;28;20509;-90
2021/01/08 10:43:04;;;;;;;10.88;6.50;;;1.70;89.80;;;;;;5032908;28;20451;-90
2021/01/08 10:45:30;;;;;;;10.27;6.13;;;1.70;89.70;;;;;;5033087;28;20117;-90
2021/01/08 10:47:55;;;;;;;10.35;7.13;;;1.70;89.70;;;;;;5033575;28;20033;-90
2021/01/08 10:50:21;;;;;;;10.65;7.45;;;1.70;89.70;;;;;;5032992;28;20503;-90
2021/01/08 10:52:46;;;;;;;9.90;6.70;;;1.70;89.70;;;;;;5033051;28;20097;-90
2021/01/08 10:55:12;;;;;;;9.45;6.30;;;1.70;89.30;;;;;;5032738;28;20025;-90
2021/01/08 10:57:38;;;;;;;10.18;6.35;;;1.60;89.20;;;;;;5032768;28;20530;-90
2021/01/08 11:00:07;;;;;;;10.15;6.90;;;1.70;89.50;;;;;;5032313;28;20377;-90
2021/01/08 11:02:32;;;;;;;9.07;6.75;;;1.70;89.00;;;;;;5032310;28;20400;-90
2021/01/08 11:04:58;;;;;;;8.57;6.40;;;1.70;89.00;;;;;;5036810;28;20021;-90
2021/01/08 11:07:24;;;;;;;8.63;6.30;;;1.60;88.60;;;;;;5037037;28;20032;-90
2021/01/08 11:09:50;;;;;;;9.32;6.00;;;1.60;88.80;;;;;;5032621;28;20022;-89
2021/01/08 11:12:16;;;;;;;11.65;7.35;;;1.60;88.40;;;;;;5030579;28;20029;-90
2021/01/08 11:14:41;;;;;;;13.63;9.13;;;1.60;89.00;;;;;;5032646;28;20547;-90
2021/01/08 11:17:07;;;;;;;11.35;9.02;;;1.60;88.80;;;;;;5032481;28;20052;-90
2021/01/08 11:19:32;;;;;;;10.88;7.53;;;1.60;88.70;;;;;;5032580;28;20029;-90
2021/01/08 11:21:58;;;;;;;16.05;9.77;;;1.60;88.40;;;;;;5032805;28;20034;-90
2021/01/08 11:24:23;;;;;;;10.00;6.72;;;1.60;88.50;;;;;;5032663;28;20455;-91
2021/01/08 11:26:49;;;;;;;11.00;6.82;;;1.70;88.60;;;;;;5032734;28;20037;-90
2021/01/08 11:29:15;;;;;;;11.20;7.80;;;1.70;88.50;;;;;;5031962;28;20025;-90
2021/01/08 11:31:41;;;;;;;9.05;6.20;;;1.70;88.50;;;;;;5032685;28;20028;-90
2021/01/08 11:34:08;;;;;;;9.00;6.32;;;1.70;88.10;;;;;;5036976;28;20033;-91
2021/01/08 11:36:35;;;;;;;10.48;6.60;;;1.80;88.30;;;;;;5040622;28;20034;-90
2021/01/08 11:39:00;;;;;;;8.63;6.53;;;1.80;88.30;;;;;;5032039;28;20135;-91
2021/01/08 11:41:26;;;;;;;9.18;6.22;;;1.80;87.70;;;;;;5032558;28;20029;-90
2021/01/08 11:43:52;;;;;;;9.75;6.40;;;1.80;87.70;;;;;;5031049;28;20036;-90
2021/01/08 11:46:21;;;;;;;10.82;6.65;;;1.80;87.00;;;;;;5031134;28;20025;-89
2021/01/08 11:48:50;;;;;;;11.75;7.43;;;1.80;87.20;;;;;;5032277;28;20021;-90
2021/01/08 11:53:45;;;;;;;10.65;6.97;;;1.90;87.80;;;;;;5011795;28;20073;-65
2021/01/08 11:56:11;;;;;;;10.65;6.35;;;1.80;87.60;;;;;;5020840;28;20022;-65
2021/01/08 11:58:37;;;;;;;8.60;5.85;;;1.90;87.70;;;;;;5022742;28;20022;-66
2021/01/08 12:01:04;;;;;;;9.65;6.20;;;1.90;87.30;;;;;;4997048;28;20454;-66
2021/01/08 12:03:30;;;;;;;7.88;5.93;;;1.90;86.80;;;;;;4996167;28;20125;-66
2021/01/08 12:05:56;;;;;;;10.07;6.47;;;1.90;87.00;;;;;;5010440;28;20133;-64
2021/01/08 12:08:22;;;;;;;8.65;6.45;;;1.90;86.80;;;;;;5011352;28;20022;-64
2021/01/08 12:10:47;;;;;;;8.95;6.75;;;1.80;86.60;;;;;;5010443;28;20029;-66
2021/01/08 12:13:13;;;;;;;10.05;5.90;;;1.80;86.70;;;;;;5011619;28;20034;-67
2021/01/08 12:15:39;;;;;;;9.18;6.30;;;1.80;86.90;;;;;;5010508;28;20021;-66
2021/01/08 12:18:04;;;;;;;10.48;7.03;;;1.80;86.50;;;;;;5010952;28;20057;-65
2021/01/08 12:20:30;;;;;;;11.30;7.00;;;1.90;86.50;;;;;;5011463;28;20034;-66
2021/01/08 12:22:56;;;;;;;13.95;9.60;;;1.90;86.40;;;;;;4998107;28;20172;-66
2021/01/08 12:25:21;;;;;;;10.00;6.75;;;1.90;86.30;;;;;;5001913;28;20053;-66
2021/01/08 12:27:47;;;;;;;13.00;7.82;;;1.90;86.20;;;;;;5011037;28;20022;-66
2021/01/08 12:30:13;;;;;;;12.27;8.00;;;1.90;86.40;;;;;;5011627;28;20024;-65
2021/01/08 12:32:39;;;;;;;17.52;11.50;;;1.90;86.00;;;;;;5010680;28;20022;-66
2021/01/08 12:35:05;;;;;;;14.73;10.27;;;1.90;86.50;;;;;;5010443;28;20072;-65
2021/01/08 12:37:31;;;;;;;13.15;8.38;;;1.90;86.40;;;;;;5007561;28;20037;-66
2021/01/08 12:39:57;;;;;;;18.15;15.43;;;1.90;86.30;;;;;;5010606;28;20026;-65
2021/01/08 12:42:22;;;;;;;28.02;23.27;;;1.90;86.30;;;;;;5007578;28;20483;-66
2021/01/08 12:44:48;;;;;;;20.45;14.38;;;1.90;86.60;;;;;;4990168;28;20109;-67
2021/01/08 12:47:13;;;;;;;15.27;11.10;;;1.90;86.80;;;;;;5005956;28;20025;-66
2021/01/08 12:49:39;;;;;;;13.77;8.88;;;1.80;87.10;;;;;;5010958;28;20026;-66
2021/01/08 12:52:05;;;;;;;14.15;8.82;;;1.90;87.20;;;;;;5008346;28;20542;-66
2021/01/08 12:54:30;;;;;;;13.95;9.07;;;1.80;86.90;;;;;;5009149;28;20097;-67